Flight Track Log - Related Links

Times and Time Zones

All times are in EDT time to prevent confusion due to time zone crossing. See the SWA652 flight status page for this flight to view local times or setup timezone preferences in your user account.

Time Position Orientation Groundspeed Altitude Reporting Facility
EDT Latitude Longitude Course Direction KTS MPH feet Rate Location/Type
Thu 12:22:50 PM 36.0756 -115.1658 271° West 152 175 3,600  Level Los Angeles Center
Thu 12:23:33 PM 36.0761 -115.2081 271° West 186 214 5,000 1,769 Climbing Los Angeles Center
Thu 12:24:08 PM 36.0647 -115.2522 252° West 244 281 5,900 1,546 Climbing Los Angeles Center
Thu 12:25:10 PM 35.9922 -115.2906 203° Southwest 279 321 7,500 2,565 Climbing Los Angeles Center
Thu 12:26:12 PM 35.9231 -115.2642 163° South 286 329 11,200 3,484 Climbing Los Angeles Center
Thu 12:27:14 PM 35.9086 -115.1453 98° East 350 403 14,700 3,435 Climbing Los Angeles Center
Thu 12:28:16 PM 35.8969 -115.0178 96° East 369 425 18,300 3,629 Climbing Los Angeles Center
Thu 12:29:18 PM 35.8797 -114.8519 97° East 402 463 22,200 3,145 Climbing Los Angeles Center
Thu 12:30:20 PM 35.8697 -114.7372 96° East 419 482 24,800 3,194 Climbing Los Angeles Center
Thu 12:31:22 PM 35.8419 -114.5703 102° East 416 479 28,800 2,016 Climbing Los Angeles Center
Thu 12:32:25 PM 35.7800 -114.4528 123° Southeast 407 468 29,000 96 Climbing Los Angeles Center
Thu 12:33:27 PM 35.7172 -114.3361 124° Southeast 406 467 29,000  Level Los Angeles Center
Thu 12:34:29 PM 35.6503 -114.2114 123° Southeast 406 467 29,000  Level Los Angeles Center
Thu 12:35:31 PM 35.5900 -114.0969 123° Southeast 404 465 29,000  Level Los Angeles Center
Thu 12:36:33 PM 35.5292 -113.9831 123° Southeast 402 463 29,000  Level Los Angeles Center
Thu 12:37:35 PM 35.4550 -113.8467 124° Southeast 403 464 29,000  Level Los Angeles Center
Thu 12:38:37 PM 35.3931 -113.7317 123° Southeast 406 467 29,000  Level Los Angeles Center
Thu 12:39:39 PM 35.3311 -113.6172 124° Southeast 407 468 29,000  Level Los Angeles Center
Thu 12:40:41 PM 35.2689 -113.5033 124° Southeast 407 468 29,000  Level Los Angeles Center
Thu 12:41:43 PM 35.2061 -113.3892 124° Southeast 408 470 29,000  Level Los Angeles Center
Thu 12:42:46 PM 35.1319 -113.2522 123° Southeast 409 471 29,000  Level Los Angeles Center
Thu 12:43:48 PM 35.0706 -113.1408 124° Southeast 404 465 29,000  Level Los Angeles Center
Thu 12:44:50 PM 35.0081 -113.0289 124° Southeast 405 466 29,000  Level Los Angeles Center
Thu 12:45:52 PM 34.9381 -112.9017 124° Southeast 450 518 29,000  Level Los Angeles Center
Thu 12:46:55 PM 34.8533 -112.7489 124° Southeast 455 524 29,000 -96 Level Albuquerque Center
Thu 12:47:57 PM 34.7828 -112.6231 124° Southeast 455 524 28,800 -1,306 Descending Albuquerque Center
Thu 12:48:59 PM 34.7128 -112.5003 125° Southeast 449 517 26,300 -2,032 Descending Albuquerque Center
Thu 12:50:01 PM 34.6278 -112.4075 138° Southeast 427 491 24,600 -2,177 Descending Albuquerque Center
Thu 12:51:03 PM 34.5231 -112.3061 141° Southeast 412 474 21,800 -2,226 Descending Albuquerque Center
Thu 12:52:05 PM 34.4378 -112.2275 143° Southeast 400 460 20,000 -919 Descending Albuquerque Center
Thu 12:53:07 PM 34.3406 -112.2036 169° South 371 427 19,900 -1,113 Descending Albuquerque Center
Thu 12:54:09 PM 34.2469 -112.1781 167° South 356 410 17,700 -2,032 Descending Albuquerque Center
Thu 12:55:11 PM 34.1567 -112.1553 168° South 338 389 15,700 -1,548 Descending Albuquerque Center
Thu 12:56:13 PM 34.0697 -112.1378 171° South 320 368 14,500 -1,548 Descending Albuquerque Center
Thu 12:57:15 PM 33.9744 -112.1483 185° South 291 335 12,500 -1,694 Descending Albuquerque Center
Thu 12:58:17 PM 33.8975 -112.1567 185° South 282 325 11,000 -1,344 Descending Albuquerque Center
Thu 12:59:20 PM 33.8236 -112.1739 191° South 274 315 9,700 -1,344 Descending Albuquerque Center
Thu 01:00:22 PM 33.7511 -112.1883 189° South 267 307 8,200 -1,065 Descending Albuquerque Center
Thu 01:01:24 PM 33.6686 -112.2050 190° South 249 287 7,500 -968 Descending Albuquerque Center
Thu 01:02:26 PM 33.6064 -112.2192 191° South 232 267 6,200 -968 Descending Albuquerque Center
Thu 01:03:28 PM 33.5425 -112.2328 190° South 232 267 5,500 -823 Descending Albuquerque Center
Thu 01:04:30 PM 33.4814 -112.2297 178° South 228 262 4,500 -823 Descending Albuquerque Center
Thu 01:05:32 PM 33.4408 -112.1769 133° Southeast 211 243 3,800 -823 Descending Albuquerque Center
Thu 01:06:34 PM 33.4408 -112.1244 90° East 167 192 2,800 -968 Descending Albuquerque Center
Thu 01:07:36 PM 33.4411 -112.0686 90° East 140 161 1,800 -823 Descending Albuquerque Center
Thu 01:08:38 PM 33.4403 -112.0219 91° East 133 153 1,100 -677 Descending Albuquerque Center

Login

Don't have an account? Register now (free) for customized features, flight alerts, and more!